Terminal Aerodrome Forecast
Issued by NWS

Home | Current Version | Previous Version | Text Only | Print | Product List | Glossary Off
Versions: 1 2 3 4 5 6 7 8 9 10 11 12 13 14

000
FTUS43 KICT 220500
TAFCNU
TAF
KCNU 220520Z 2206/2306 36008KT P6SM SKC
     FM221500 05010KT P6SM SKC
     FM222200 08010KT P6SM SKC=

USA.gov is the U.S. government's official web portal to all federal, state and local government web resources and services.